sensor_id;sensor_type;location;lat;lon;timestamp;temperature;humidity
72650;SHT31;61467;50.674;4.618;2022-07-09T00:02:08;20.56;59.81
72650;SHT31;61467;50.674;4.618;2022-07-09T00:04:34;20.49;59.77
72650;SHT31;61467;50.674;4.618;2022-07-09T00:07:01;20.45;59.73
72650;SHT31;61467;50.674;4.618;2022-07-09T00:09:28;20.41;60.12
72650;SHT31;61467;50.674;4.618;2022-07-09T00:11:54;20.35;60.15
72650;SHT31;61467;50.674;4.618;2022-07-09T00:14:23;20.40;60.27
72650;SHT31;61467;50.674;4.618;2022-07-09T00:16:50;20.40;60.34
72650;SHT31;61467;50.674;4.618;2022-07-09T00:19:17;20.34;60.42
72650;SHT31;61467;50.674;4.618;2022-07-09T00:21:43;20.31;60.57
72650;SHT31;61467;50.674;4.618;2022-07-09T00:24:10;20.31;60.49
72650;SHT31;61467;50.674;4.618;2022-07-09T00:26:37;20.30;60.48
72650;SHT31;61467;50.674;4.618;2022-07-09T00:29:03;20.27;60.70
72650;SHT31;61467;50.674;4.618;2022-07-09T00:31:32;20.27;60.70
72650;SHT31;61467;50.674;4.618;2022-07-09T00:33:59;20.27;60.93
72650;SHT31;61467;50.674;4.618;2022-07-09T00:36:26;20.20;60.81
72650;SHT31;61467;50.674;4.618;2022-07-09T00:38:52;20.18;61.04
72650;SHT31;61467;50.674;4.618;2022-07-09T00:41:19;20.17;61.12
72650;SHT31;61467;50.674;4.618;2022-07-09T00:43:46;20.11;61.43
72650;SHT31;61467;50.674;4.618;2022-07-09T00:46:14;20.03;61.62
72650;SHT31;61467;50.674;4.618;2022-07-09T00:48:42;20.03;61.58
72650;SHT31;61467;50.674;4.618;2022-07-09T00:51:11;20.04;61.53
72650;SHT31;61467;50.674;4.618;2022-07-09T00:53:40;20.01;61.55
72650;SHT31;61467;50.674;4.618;2022-07-09T00:56:07;19.93;62.02
72650;SHT31;61467;50.674;4.618;2022-07-09T00:58:35;19.83;62.46
72650;SHT31;61467;50.674;4.618;2022-07-09T01:01:02;19.84;62.37
72650;SHT31;61467;50.674;4.618;2022-07-09T01:03:28;19.84;62.32
72650;SHT31;61467;50.674;4.618;2022-07-09T01:05:56;19.70;62.74
72650;SHT31;61467;50.674;4.618;2022-07-09T01:08:25;19.73;62.64
72650;SHT31;61467;50.674;4.618;2022-07-09T01:10:52;19.74;62.90
72650;SHT31;61467;50.674;4.618;2022-07-09T01:13:20;19.73;62.69
72650;SHT31;61467;50.674;4.618;2022-07-09T01:15:46;19.69;62.95
72650;SHT31;61467;50.674;4.618;2022-07-09T01:18:13;19.67;62.94
72650;SHT31;61467;50.674;4.618;2022-07-09T01:20:41;19.59;62.96
72650;SHT31;61467;50.674;4.618;2022-07-09T01:23:08;19.45;63.47
72650;SHT31;61467;50.674;4.618;2022-07-09T01:25:36;19.51;63.54
72650;SHT31;61467;50.674;4.618;2022-07-09T01:28:04;19.45;63.51
72650;SHT31;61467;50.674;4.618;2022-07-09T01:30:33;19.38;63.71
72650;SHT31;61467;50.674;4.618;2022-07-09T01:32:59;19.39;63.51
72650;SHT31;61467;50.674;4.618;2022-07-09T01:35:27;19.31;63.96
72650;SHT31;61467;50.674;4.618;2022-07-09T01:37:55;19.33;63.73
72650;SHT31;61467;50.674;4.618;2022-07-09T01:40:22;19.39;63.64
72650;SHT31;61467;50.674;4.618;2022-07-09T01:42:49;19.31;63.89
72650;SHT31;61467;50.674;4.618;2022-07-09T01:45:16;19.26;63.97
72650;SHT31;61467;50.674;4.618;2022-07-09T01:47:43;19.25;63.79
72650;SHT31;61467;50.674;4.618;2022-07-09T01:50:10;19.33;63.76
72650;SHT31;61467;50.674;4.618;2022-07-09T01:52:37;19.28;63.85
72650;SHT31;61467;50.674;4.618;2022-07-09T01:55:06;19.28;64.04
72650;SHT31;61467;50.674;4.618;2022-07-09T01:57:33;19.35;63.93
72650;SHT31;61467;50.674;4.618;2022-07-09T01:59:59;19.31;63.87
72650;SHT31;61467;50.674;4.618;2022-07-09T02:02:26;19.21;64.03
72650;SHT31;61467;50.674;4.618;2022-07-09T02:04:53;19.26;64.04
72650;SHT31;61467;50.674;4.618;2022-07-09T02:07:20;19.22;64.30
72650;SHT31;61467;50.674;4.618;2022-07-09T02:09:46;19.18;64.52
72650;SHT31;61467;50.674;4.618;2022-07-09T02:12:16;19.19;64.29
72650;SHT31;61467;50.674;4.618;2022-07-09T02:14:43;19.22;64.08
72650;SHT31;61467;50.674;4.618;2022-07-09T02:17:09;19.19;64.46
72650;SHT31;61467;50.674;4.618;2022-07-09T02:19:36;19.12;64.79
72650;SHT31;61467;50.674;4.618;2022-07-09T02:22:03;19.12;64.72
72650;SHT31;61467;50.674;4.618;2022-07-09T02:24:30;19.08;64.78
72650;SHT31;61467;50.674;4.618;2022-07-09T02:26:56;19.12;64.75
72650;SHT31;61467;50.674;4.618;2022-07-09T02:29:25;19.07;64.90
72650;SHT31;61467;50.674;4.618;2022-07-09T02:31:51;19.08;64.75
72650;SHT31;61467;50.674;4.618;2022-07-09T02:34:20;19.11;64.51
72650;SHT31;61467;50.674;4.618;2022-07-09T02:36:47;19.02;64.99
72650;SHT31;61467;50.674;4.618;2022-07-09T02:39:14;19.07;65.06
72650;SHT31;61467;50.674;4.618;2022-07-09T02:41:40;19.00;65.29
72650;SHT31;61467;50.674;4.618;2022-07-09T02:44:07;19.01;65.27
72650;SHT31;61467;50.674;4.618;2022-07-09T02:46:35;19.05;65.09
72650;SHT31;61467;50.674;4.618;2022-07-09T02:49:02;19.11;64.99
72650;SHT31;61467;50.674;4.618;2022-07-09T02:51:29;18.95;65.14
72650;SHT31;61467;50.674;4.618;2022-07-09T02:53:56;19.01;65.07
72650;SHT31;61467;50.674;4.618;2022-07-09T02:56:22;18.94;64.88
72650;SHT31;61467;50.674;4.618;2022-07-09T02:58:49;18.78;64.83
72650;SHT31;61467;50.674;4.618;2022-07-09T03:01:16;18.83;64.60
72650;SHT31;61467;50.674;4.618;2022-07-09T03:03:44;18.91;64.22
72650;SHT31;61467;50.674;4.618;2022-07-09T03:06:10;18.92;64.12
72650;SHT31;61467;50.674;4.618;2022-07-09T03:08:38;18.92;63.97
72650;SHT31;61467;50.674;4.618;2022-07-09T03:11:05;18.94;63.47
72650;SHT31;61467;50.674;4.618;2022-07-09T03:13:32;18.94;63.72
72650;SHT31;61467;50.674;4.618;2022-07-09T03:15:59;18.91;64.29
72650;SHT31;61467;50.674;4.618;2022-07-09T03:18:26;18.87;64.82
72650;SHT31;61467;50.674;4.618;2022-07-09T03:20:54;18.87;64.74
72650;SHT31;61467;50.674;4.618;2022-07-09T03:23:21;18.75;65.00
72650;SHT31;61467;50.674;4.618;2022-07-09T03:25:48;18.77;65.18
72650;SHT31;61467;50.674;4.618;2022-07-09T03:28:15;18.77;65.03
72650;SHT31;61467;50.674;4.618;2022-07-09T03:30:42;18.80;64.90
72650;SHT31;61467;50.674;4.618;2022-07-09T03:33:08;18.85;64.72
72650;SHT31;61467;50.674;4.618;2022-07-09T03:35:35;18.84;64.42
72650;SHT31;61467;50.674;4.618;2022-07-09T03:38:05;18.80;64.60
72650;SHT31;61467;50.674;4.618;2022-07-09T03:40:32;18.78;64.66
72650;SHT31;61467;50.674;4.618;2022-07-09T03:42:59;18.75;64.96
72650;SHT31;61467;50.674;4.618;2022-07-09T03:45:26;18.80;64.89
72650;SHT31;61467;50.674;4.618;2022-07-09T03:47:52;18.81;65.58
72650;SHT31;61467;50.674;4.618;2022-07-09T03:50:19;18.81;65.51
72650;SHT31;61467;50.674;4.618;2022-07-09T03:52:46;18.80;65.76
72650;SHT31;61467;50.674;4.618;2022-07-09T03:55:14;18.81;65.67
72650;SHT31;61467;50.674;4.618;2022-07-09T03:57:41;18.78;65.71
72650;SHT31;61467;50.674;4.618;2022-07-09T04:00:08;18.81;65.83
72650;SHT31;61467;50.674;4.618;2022-07-09T04:02:35;18.75;66.22
72650;SHT31;61467;50.674;4.618;2022-07-09T04:05:01;18.77;66.20
72650;SHT31;61467;50.674;4.618;2022-07-09T04:07:28;18.74;66.29
72650;SHT31;61467;50.674;4.618;2022-07-09T04:09:55;18.78;66.22
72650;SHT31;61467;50.674;4.618;2022-07-09T04:12:23;18.73;66.49
72650;SHT31;61467;50.674;4.618;2022-07-09T04:14:50;18.61;66.53
72650;SHT31;61467;50.674;4.618;2022-07-09T04:17:16;18.64;66.55
72650;SHT31;61467;50.674;4.618;2022-07-09T04:19:43;18.68;66.29
72650;SHT31;61467;50.674;4.618;2022-07-09T04:22:10;18.61;66.45
72650;SHT31;61467;50.674;4.618;2022-07-09T04:24:36;18.67;66.51
72650;SHT31;61467;50.674;4.618;2022-07-09T04:27:04;18.65;66.44
72650;SHT31;61467;50.674;4.618;2022-07-09T04:29:32;18.61;66.30
72650;SHT31;61467;50.674;4.618;2022-07-09T04:31:58;18.64;66.34
72650;SHT31;61467;50.674;4.618;2022-07-09T04:34:25;18.64;66.20
72650;SHT31;61467;50.674;4.618;2022-07-09T04:36:52;18.51;66.60
72650;SHT31;61467;50.674;4.618;2022-07-09T04:39:19;18.54;66.59
72650;SHT31;61467;50.674;4.618;2022-07-09T04:41:45;18.57;66.81
72650;SHT31;61467;50.674;4.618;2022-07-09T04:44:12;18.50;66.78
72650;SHT31;61467;50.674;4.618;2022-07-09T04:46:42;18.61;66.62
72650;SHT31;61467;50.674;4.618;2022-07-09T04:49:09;18.63;66.74
72650;SHT31;61467;50.674;4.618;2022-07-09T04:51:36;18.65;66.79
72650;SHT31;61467;50.674;4.618;2022-07-09T04:54:03;18.64;67.20
72650;SHT31;61467;50.674;4.618;2022-07-09T04:56:29;18.67;67.13
72650;SHT31;61467;50.674;4.618;2022-07-09T04:58:56;18.67;67.07
72650;SHT31;61467;50.674;4.618;2022-07-09T05:01:25;18.80;66.88
72650;SHT31;61467;50.674;4.618;2022-07-09T05:03:56;18.73;66.87
72650;SHT31;61467;50.674;4.618;2022-07-09T05:06:23;18.80;66.38
72650;SHT31;61467;50.674;4.618;2022-07-09T05:08:49;18.87;66.25
72650;SHT31;61467;50.674;4.618;2022-07-09T05:11:16;18.98;66.32
72650;SHT31;61467;50.674;4.618;2022-07-09T05:13:43;18.98;65.66
72650;SHT31;61467;50.674;4.618;2022-07-09T05:16:11;18.67;66.64
72650;SHT31;61467;50.674;4.618;2022-07-09T05:18:38;18.84;66.06
72650;SHT31;61467;50.674;4.618;2022-07-09T05:21:06;18.87;66.16
72650;SHT31;61467;50.674;4.618;2022-07-09T05:23:33;18.95;66.15
72650;SHT31;61467;50.674;4.618;2022-07-09T05:25:59;18.95;65.83
72650;SHT31;61467;50.674;4.618;2022-07-09T05:28:27;18.81;66.43
72650;SHT31;61467;50.674;4.618;2022-07-09T05:30:53;18.94;66.28
72650;SHT31;61467;50.674;4.618;2022-07-09T05:33:20;19.02;65.97
72650;SHT31;61467;50.674;4.618;2022-07-09T05:35:46;19.12;65.88
72650;SHT31;61467;50.674;4.618;2022-07-09T05:38:15;19.11;66.19
72650;SHT31;61467;50.674;4.618;2022-07-09T05:40:41;19.00;66.73
72650;SHT31;61467;50.674;4.618;2022-07-09T05:43:08;19.19;66.18
72650;SHT31;61467;50.674;4.618;2022-07-09T05:45:35;19.22;66.43
72650;SHT31;61467;50.674;4.618;2022-07-09T05:48:01;19.49;65.03
72650;SHT31;61467;50.674;4.618;2022-07-09T05:50:28;19.45;65.15
72650;SHT31;61467;50.674;4.618;2022-07-09T05:52:55;19.62;64.77
72650;SHT31;61467;50.674;4.618;2022-07-09T05:55:23;19.74;64.33
72650;SHT31;61467;50.674;4.618;2022-07-09T05:57:49;19.81;64.49
72650;SHT31;61467;50.674;4.618;2022-07-09T06:00:16;19.91;64.66
72650;SHT31;61467;50.674;4.618;2022-07-09T06:02:43;19.90;64.29
72650;SHT31;61467;50.674;4.618;2022-07-09T06:05:09;20.06;63.84
72650;SHT31;61467;50.674;4.618;2022-07-09T06:07:36;20.01;64.05
72650;SHT31;61467;50.674;4.618;2022-07-09T06:10:10;20.17;63.92
72650;SHT31;61467;50.674;4.618;2022-07-09T06:12:38;20.37;63.68
72650;SHT31;61467;50.674;4.618;2022-07-09T06:15:06;20.51;62.95
72650;SHT31;61467;50.674;4.618;2022-07-09T06:17:33;20.62;62.57
72650;SHT31;61467;50.674;4.618;2022-07-09T06:20:00;20.73;62.40
72650;SHT31;61467;50.674;4.618;2022-07-09T06:22:26;20.69;62.29
72650;SHT31;61467;50.674;4.618;2022-07-09T06:24:53;20.96;61.98
72650;SHT31;61467;50.674;4.618;2022-07-09T06:27:20;20.88;61.84
72650;SHT31;61467;50.674;4.618;2022-07-09T06:29:48;21.03;61.30
72650;SHT31;61467;50.674;4.618;2022-07-09T06:32:15;20.90;61.42
72650;SHT31;61467;50.674;4.618;2022-07-09T06:34:41;20.76;62.24
72650;SHT31;61467;50.674;4.618;2022-07-09T06:37:08;20.85;61.95
72650;SHT31;61467;50.674;4.618;2022-07-09T06:39:36;20.69;62.06
72650;SHT31;61467;50.674;4.618;2022-07-09T06:42:13;21.09;61.35
72650;SHT31;61467;50.674;4.618;2022-07-09T06:44:40;21.26;60.96
72650;SHT31;61467;50.674;4.618;2022-07-09T06:47:09;21.46;60.08
72650;SHT31;61467;50.674;4.618;2022-07-09T06:49:35;21.46;59.58
72650;SHT31;61467;50.674;4.618;2022-07-09T06:52:03;21.54;59.18
72650;SHT31;61467;50.674;4.618;2022-07-09T06:54:30;21.68;59.75
72650;SHT31;61467;50.674;4.618;2022-07-09T06:56:57;21.78;59.06
72650;SHT31;61467;50.674;4.618;2022-07-09T06:59:23;21.88;58.48
72650;SHT31;61467;50.674;4.618;2022-07-09T07:01:50;21.98;58.27
72650;SHT31;61467;50.674;4.618;2022-07-09T07:04:20;22.15;58.26
72650;SHT31;61467;50.674;4.618;2022-07-09T07:06:47;22.11;58.33
72650;SHT31;61467;50.674;4.618;2022-07-09T07:09:14;22.12;58.31
72650;SHT31;61467;50.674;4.618;2022-07-09T07:11:42;22.35;57.25
72650;SHT31;61467;50.674;4.618;2022-07-09T07:14:08;22.43;56.80
72650;SHT31;61467;50.674;4.618;2022-07-09T07:16:35;22.40;56.98
72650;SHT31;61467;50.674;4.618;2022-07-09T07:19:02;22.35;57.23
72650;SHT31;61467;50.674;4.618;2022-07-09T07:21:30;22.52;55.61
72650;SHT31;61467;50.674;4.618;2022-07-09T07:23:57;22.33;55.83
72650;SHT31;61467;50.674;4.618;2022-07-09T07:26:23;22.26;56.49
72650;SHT31;61467;50.674;4.618;2022-07-09T07:28:50;22.52;56.16
72650;SHT31;61467;50.674;4.618;2022-07-09T07:31:17;22.22;57.36
72650;SHT31;61467;50.674;4.618;2022-07-09T07:33:44;22.45;56.01
72650;SHT31;61467;50.674;4.618;2022-07-09T07:36:10;22.52;56.38
72650;SHT31;61467;50.674;4.618;2022-07-09T07:38:38;22.45;57.24
72650;SHT31;61467;50.674;4.618;2022-07-09T07:41:06;22.71;55.91
72650;SHT31;61467;50.674;4.618;2022-07-09T07:43:33;22.77;55.35
72650;SHT31;61467;50.674;4.618;2022-07-09T07:46:00;22.97;55.07
72650;SHT31;61467;50.674;4.618;2022-07-09T07:48:26;23.15;55.02
72650;SHT31;61467;50.674;4.618;2022-07-09T07:50:53;22.97;55.33
72650;SHT31;61467;50.674;4.618;2022-07-09T07:53:21;23.06;55.23
72650;SHT31;61467;50.674;4.618;2022-07-09T07:55:49;22.93;55.40
72650;SHT31;61467;50.674;4.618;2022-07-09T07:58:16;22.64;55.49
72650;SHT31;61467;50.674;4.618;2022-07-09T08:00:42;22.86;55.27
72650;SHT31;61467;50.674;4.618;2022-07-09T08:03:09;22.89;54.80
72650;SHT31;61467;50.674;4.618;2022-07-09T08:05:35;22.73;55.18
72650;SHT31;61467;50.674;4.618;2022-07-09T08:08:02;22.97;54.37
72650;SHT31;61467;50.674;4.618;2022-07-09T08:10:30;23.34;53.79
72650;SHT31;61467;50.674;4.618;2022-07-09T08:12:58;23.31;53.81
72650;SHT31;61467;50.674;4.618;2022-07-09T08:15:25;23.47;53.72
72650;SHT31;61467;50.674;4.618;2022-07-09T08:17:52;23.35;52.99
72650;SHT31;61467;50.674;4.618;2022-07-09T08:20:19;23.55;52.85
72650;SHT31;61467;50.674;4.618;2022-07-09T08:22:46;23.86;51.73
72650;SHT31;61467;50.674;4.618;2022-07-09T08:25:13;23.75;52.10
72650;SHT31;61467;50.674;4.618;2022-07-09T08:27:40;23.61;52.45
72650;SHT31;61467;50.674;4.618;2022-07-09T08:30:09;23.21;53.12
72650;SHT31;61467;50.674;4.618;2022-07-09T08:32:36;23.44;53.16
72650;SHT31;61467;50.674;4.618;2022-07-09T08:35:03;23.62;52.73
72650;SHT31;61467;50.674;4.618;2022-07-09T08:37:30;23.65;52.63
72650;SHT31;61467;50.674;4.618;2022-07-09T08:39:57;23.85;51.81
72650;SHT31;61467;50.674;4.618;2022-07-09T08:42:24;23.79;51.26
72650;SHT31;61467;50.674;4.618;2022-07-09T08:44:52;23.32;52.39
72650;SHT31;61467;50.674;4.618;2022-07-09T08:47:21;23.86;51.45
72650;SHT31;61467;50.674;4.618;2022-07-09T08:49:49;23.79;51.60
72650;SHT31;61467;50.674;4.618;2022-07-09T08:52:17;23.48;52.55
72650;SHT31;61467;50.674;4.618;2022-07-09T08:54:46;23.96;52.66
72650;SHT31;61467;50.674;4.618;2022-07-09T08:57:12;24.14;51.90
72650;SHT31;61467;50.674;4.618;2022-07-09T08:59:39;24.37;51.64
72650;SHT31;61467;50.674;4.618;2022-07-09T09:02:06;24.17;51.78
72650;SHT31;61467;50.674;4.618;2022-07-09T09:04:36;24.31;49.74
72650;SHT31;61467;50.674;4.618;2022-07-09T09:07:13;23.68;51.19
72650;SHT31;61467;50.674;4.618;2022-07-09T09:09:39;23.38;51.71
72650;SHT31;61467;50.674;4.618;2022-07-09T09:12:07;23.63;51.91
72650;SHT31;61467;50.674;4.618;2022-07-09T09:14:33;23.48;52.01
72650;SHT31;61467;50.674;4.618;2022-07-09T09:17:04;23.82;51.90
72650;SHT31;61467;50.674;4.618;2022-07-09T09:19:30;24.00;50.36
72650;SHT31;61467;50.674;4.618;2022-07-09T09:21:59;24.16;50.12
72650;SHT31;61467;50.674;4.618;2022-07-09T09:24:26;24.46;51.30
72650;SHT31;61467;50.674;4.618;2022-07-09T09:26:56;24.47;51.17
72650;SHT31;61467;50.674;4.618;2022-07-09T09:29:23;24.79;51.25
72650;SHT31;61467;50.674;4.618;2022-07-09T09:31:50;24.92;51.06
72650;SHT31;61467;50.674;4.618;2022-07-09T09:34:18;24.40;51.12
72650;SHT31;61467;50.674;4.618;2022-07-09T09:36:46;24.07;52.25
72650;SHT31;61467;50.674;4.618;2022-07-09T09:39:16;24.36;51.87
72650;SHT31;61467;50.674;4.618;2022-07-09T09:41:44;24.61;51.56
72650;SHT31;61467;50.674;4.618;2022-07-09T09:44:12;24.72;50.55
72650;SHT31;61467;50.674;4.618;2022-07-09T09:46:40;24.89;50.57
72650;SHT31;61467;50.674;4.618;2022-07-09T09:49:11;25.36;49.95
72650;SHT31;61467;50.674;4.618;2022-07-09T09:51:45;25.23;48.81
72650;SHT31;61467;50.674;4.618;2022-07-09T09:54:15;25.19;47.90
72650;SHT31;61467;50.674;4.618;2022-07-09T09:56:42;25.39;47.82
72650;SHT31;61467;50.674;4.618;2022-07-09T09:59:09;25.32;48.52
72650;SHT31;61467;50.674;4.618;2022-07-09T10:01:37;25.46;47.59
72650;SHT31;61467;50.674;4.618;2022-07-09T10:04:04;25.56;47.50
72650;SHT31;61467;50.674;4.618;2022-07-09T10:06:32;25.54;47.24
72650;SHT31;61467;50.674;4.618;2022-07-09T10:09:00;25.26;48.10
72650;SHT31;61467;50.674;4.618;2022-07-09T10:11:39;25.43;47.91
72650;SHT31;61467;50.674;4.618;2022-07-09T10:14:06;25.76;48.06
72650;SHT31;61467;50.674;4.618;2022-07-09T10:16:35;25.51;47.54
72650;SHT31;61467;50.674;4.618;2022-07-09T10:19:01;25.20;48.81
72650;SHT31;61467;50.674;4.618;2022-07-09T10:21:33;25.45;49.34
72650;SHT31;61467;50.674;4.618;2022-07-09T10:24:00;25.60;48.82
72650;SHT31;61467;50.674;4.618;2022-07-09T10:26:39;25.88;48.97
72650;SHT31;61467;50.674;4.618;2022-07-09T10:29:20;25.19;48.96
72650;SHT31;61467;50.674;4.618;2022-07-09T10:31:47;24.74;50.79
72650;SHT31;61467;50.674;4.618;2022-07-09T10:34:29;24.96;50.51
72650;SHT31;61467;50.674;4.618;2022-07-09T10:36:57;25.18;50.41
72650;SHT31;61467;50.674;4.618;2022-07-09T10:39:24;25.69;49.43
72650;SHT31;61467;50.674;4.618;2022-07-09T10:42:03;25.63;49.62
72650;SHT31;61467;50.674;4.618;2022-07-09T10:44:34;25.66;49.96
72650;SHT31;61467;50.674;4.618;2022-07-09T10:47:01;25.81;49.72
72650;SHT31;61467;50.674;4.618;2022-07-09T10:49:28;25.56;49.99
72650;SHT31;61467;50.674;4.618;2022-07-09T10:51:58;25.11;50.97
72650;SHT31;61467;50.674;4.618;2022-07-09T10:54:25;24.85;51.89
72650;SHT31;61467;50.674;4.618;2022-07-09T10:56:53;24.67;51.68
72650;SHT31;61467;50.674;4.618;2022-07-09T10:59:22;24.68;52.00
72650;SHT31;61467;50.674;4.618;2022-07-09T11:01:49;24.69;52.10
72650;SHT31;61467;50.674;4.618;2022-07-09T11:04:27;25.12;51.36
72650;SHT31;61467;50.674;4.618;2022-07-09T11:06:54;24.98;51.23
72650;SHT31;61467;50.674;4.618;2022-07-09T11:09:21;24.79;51.07
72650;SHT31;61467;50.674;4.618;2022-07-09T11:11:48;24.88;51.35
72650;SHT31;61467;50.674;4.618;2022-07-09T11:14:15;25.05;51.45
72650;SHT31;61467;50.674;4.618;2022-07-09T11:16:52;25.04;50.33
72650;SHT31;61467;50.674;4.618;2022-07-09T11:19:20;25.33;50.32
72650;SHT31;61467;50.674;4.618;2022-07-09T11:21:47;25.42;49.97
72650;SHT31;61467;50.674;4.618;2022-07-09T11:24:15;25.15;51.59
72650;SHT31;61467;50.674;4.618;2022-07-09T11:26:42;25.04;51.42
72650;SHT31;61467;50.674;4.618;2022-07-09T11:29:09;24.95;52.14
72650;SHT31;61467;50.674;4.618;2022-07-09T11:31:36;24.95;53.17
72650;SHT31;61467;50.674;4.618;2022-07-09T11:34:05;24.48;54.45
72650;SHT31;61467;50.674;4.618;2022-07-09T11:36:51;24.98;52.87
72650;SHT31;61467;50.674;4.618;2022-07-09T11:39:23;25.22;51.13
72650;SHT31;61467;50.674;4.618;2022-07-09T11:41:50;25.37;51.11
72650;SHT31;61467;50.674;4.618;2022-07-09T11:44:21;25.06;52.55
72650;SHT31;61467;50.674;4.618;2022-07-09T11:47:03;24.63;52.47
72650;SHT31;61467;50.674;4.618;2022-07-09T11:49:35;24.78;52.43
72650;SHT31;61467;50.674;4.618;2022-07-09T11:52:03;25.22;50.87
72650;SHT31;61467;50.674;4.618;2022-07-09T11:54:30;25.50;50.64
72650;SHT31;61467;50.674;4.618;2022-07-09T11:56:57;25.66;49.04
72650;SHT31;61467;50.674;4.618;2022-07-09T11:59:28;25.84;48.44
72650;SHT31;61467;50.674;4.618;2022-07-09T12:01:58;25.78;48.33
72650;SHT31;61467;50.674;4.618;2022-07-09T12:04:28;25.36;50.34
72650;SHT31;61467;50.674;4.618;2022-07-09T12:06:57;24.96;52.66
72650;SHT31;61467;50.674;4.618;2022-07-09T12:09:28;24.53;54.13
72650;SHT31;61467;50.674;4.618;2022-07-09T12:11:56;24.41;54.12
72650;SHT31;61467;50.674;4.618;2022-07-09T12:14:23;24.41;54.16
72650;SHT31;61467;50.674;4.618;2022-07-09T12:16:49;24.38;54.17
72650;SHT31;61467;50.674;4.618;2022-07-09T12:19:16;24.29;54.71
72650;SHT31;61467;50.674;4.618;2022-07-09T12:21:43;23.96;53.83
72650;SHT31;61467;50.674;4.618;2022-07-09T12:24:11;23.89;53.87
72650;SHT31;61467;50.674;4.618;2022-07-09T12:26:38;23.58;54.41
72650;SHT31;61467;50.674;4.618;2022-07-09T12:29:05;23.89;55.01
72650;SHT31;61467;50.674;4.618;2022-07-09T12:31:31;23.79;54.67
72650;SHT31;61467;50.674;4.618;2022-07-09T12:34:02;24.16;53.70
72650;SHT31;61467;50.674;4.618;2022-07-09T12:36:29;24.50;52.92
72650;SHT31;61467;50.674;4.618;2022-07-09T12:38:56;24.65;52.09
72650;SHT31;61467;50.674;4.618;2022-07-09T12:41:25;24.72;51.48
72650;SHT31;61467;50.674;4.618;2022-07-09T12:43:52;24.82;51.09
72650;SHT31;61467;50.674;4.618;2022-07-09T12:46:24;24.58;51.62
72650;SHT31;61467;50.674;4.618;2022-07-09T12:48:51;24.46;50.65
72650;SHT31;61467;50.674;4.618;2022-07-09T12:51:17;24.46;50.68
72650;SHT31;61467;50.674;4.618;2022-07-09T12:53:44;24.26;51.74
72650;SHT31;61467;50.674;4.618;2022-07-09T12:56:11;24.36;50.79
72650;SHT31;61467;50.674;4.618;2022-07-09T12:58:39;24.27;50.02
72650;SHT31;61467;50.674;4.618;2022-07-09T13:01:05;24.23;50.87
72650;SHT31;61467;50.674;4.618;2022-07-09T13:03:32;24.64;51.00
72650;SHT31;61467;50.674;4.618;2022-07-09T13:05:59;24.84;50.52
72650;SHT31;61467;50.674;4.618;2022-07-09T13:08:25;24.92;50.21
72650;SHT31;61467;50.674;4.618;2022-07-09T13:10:52;25.16;49.14
72650;SHT31;61467;50.674;4.618;2022-07-09T13:13:19;25.35;48.75
72650;SHT31;61467;50.674;4.618;2022-07-09T13:15:47;24.64;47.64
72650;SHT31;61467;50.674;4.618;2022-07-09T13:18:13;24.29;48.57
72650;SHT31;61467;50.674;4.618;2022-07-09T13:20:41;23.88;49.01
72650;SHT31;61467;50.674;4.618;2022-07-09T13:23:08;24.19;49.98
72650;SHT31;61467;50.674;4.618;2022-07-09T13:25:35;24.20;49.28
72650;SHT31;61467;50.674;4.618;2022-07-09T13:28:02;24.43;48.54
72650;SHT31;61467;50.674;4.618;2022-07-09T13:30:28;24.47;49.09
72650;SHT31;61467;50.674;4.618;2022-07-09T13:32:56;24.38;49.65
72650;SHT31;61467;50.674;4.618;2022-07-09T13:35:23;24.48;48.40
72650;SHT31;61467;50.674;4.618;2022-07-09T13:37:50;24.21;47.76
72650;SHT31;61467;50.674;4.618;2022-07-09T13:40:17;24.03;48.43
72650;SHT31;61467;50.674;4.618;2022-07-09T13:42:43;23.82;49.66
72650;SHT31;61467;50.674;4.618;2022-07-09T13:45:10;24.27;49.31
72650;SHT31;61467;50.674;4.618;2022-07-09T13:47:36;24.60;48.71
72650;SHT31;61467;50.674;4.618;2022-07-09T13:50:06;24.89;47.92
72650;SHT31;61467;50.674;4.618;2022-07-09T13:52:33;25.29;46.03
72650;SHT31;61467;50.674;4.618;2022-07-09T13:54:59;25.15;46.94
72650;SHT31;61467;50.674;4.618;2022-07-09T13:57:26;24.64;45.02
72650;SHT31;61467;50.674;4.618;2022-07-09T13:59:53;24.92;45.82
72650;SHT31;61467;50.674;4.618;2022-07-09T14:02:19;24.84;45.58
72650;SHT31;61467;50.674;4.618;2022-07-09T14:04:46;25.42;44.75
72650;SHT31;61467;50.674;4.618;2022-07-09T14:07:16;24.94;44.17
72650;SHT31;61467;50.674;4.618;2022-07-09T14:09:42;24.99;44.42
72650;SHT31;61467;50.674;4.618;2022-07-09T14:12:09;24.88;45.26
72650;SHT31;61467;50.674;4.618;2022-07-09T14:14:36;24.95;45.41
72650;SHT31;61467;50.674;4.618;2022-07-09T14:17:03;24.58;46.31
72650;SHT31;61467;50.674;4.618;2022-07-09T14:19:30;24.72;45.72
72650;SHT31;61467;50.674;4.618;2022-07-09T14:21:57;24.96;45.65
72650;SHT31;61467;50.674;4.618;2022-07-09T14:24:25;25.22;44.38
72650;SHT31;61467;50.674;4.618;2022-07-09T14:26:51;25.43;44.62
72650;SHT31;61467;50.674;4.618;2022-07-09T14:29:18;25.36;44.95
72650;SHT31;61467;50.674;4.618;2022-07-09T14:31:45;24.72;46.24
72650;SHT31;61467;50.674;4.618;2022-07-09T14:34:11;24.10;47.48
72650;SHT31;61467;50.674;4.618;2022-07-09T14:36:38;24.48;46.43
72650;SHT31;61467;50.674;4.618;2022-07-09T14:39:05;24.50;46.32
72650;SHT31;61467;50.674;4.618;2022-07-09T14:41:33;24.77;45.54
72650;SHT31;61467;50.674;4.618;2022-07-09T14:44:01;25.05;44.62
72650;SHT31;61467;50.674;4.618;2022-07-09T14:46:27;25.40;45.47
72650;SHT31;61467;50.674;4.618;2022-07-09T14:48:54;25.90;43.79
72650;SHT31;61467;50.674;4.618;2022-07-09T14:51:21;26.22;43.31
72650;SHT31;61467;50.674;4.618;2022-07-09T14:53:48;25.97;41.79
72650;SHT31;61467;50.674;4.618;2022-07-09T14:56:14;25.74;42.42
72650;SHT31;61467;50.674;4.618;2022-07-09T14:58:42;25.30;42.47
72650;SHT31;61467;50.674;4.618;2022-07-09T15:01:09;25.53;42.47
72650;SHT31;61467;50.674;4.618;2022-07-09T15:03:36;25.23;42.96
72650;SHT31;61467;50.674;4.618;2022-07-09T15:06:03;25.30;42.45
72650;SHT31;61467;50.674;4.618;2022-07-09T15:08:29;25.81;42.97
72650;SHT31;61467;50.674;4.618;2022-07-09T15:10:56;26.20;42.02
72650;SHT31;61467;50.674;4.618;2022-07-09T15:13:23;26.49;41.80
72650;SHT31;61467;50.674;4.618;2022-07-09T15:15:53;26.09;39.54
72650;SHT31;61467;50.674;4.618;2022-07-09T15:18:20;25.63;40.90
72650;SHT31;61467;50.674;4.618;2022-07-09T15:20:47;25.23;41.19
72650;SHT31;61467;50.674;4.618;2022-07-09T15:23:14;25.42;41.12
72650;SHT31;61467;50.674;4.618;2022-07-09T15:25:40;25.30;40.98
72650;SHT31;61467;50.674;4.618;2022-07-09T15:28:07;25.69;40.34
72650;SHT31;61467;50.674;4.618;2022-07-09T15:30:34;25.53;40.29
72650;SHT31;61467;50.674;4.618;2022-07-09T15:33:02;25.54;41.01